Time;durP1;ratioP1;P1;durP2;ratioP2;P2;SDS_P1;SDS_P2;PMS_P1;PMS_P2;Temp;Humidity;BMP_temperature;BMP_pressure;BME280_temperature;BME280_humidity;BME280_pressure;Samples;Min_cycle;Max_cycle;Signal;HPM_P1;HPM_P2
2023/12/18 00:02:07;;;;;;;1.30;1.30;;;;;;;3.69;100.00;97301.25;4321591;32;20350;-61
2023/12/18 00:04:32;;;;;;;4.50;2.23;;;;;;;3.59;100.00;97306.84;4322450;32;20279;-61
2023/12/18 00:06:57;;;;;;;2.70;2.53;;;;;;;3.77;100.00;97293.16;4324371;32;20318;-61
2023/12/18 00:09:23;;;;;;;1.47;1.47;;;;;;;3.78;100.00;97300.81;4326692;32;20216;-60
2023/12/18 00:11:48;;;;;;;1.50;1.43;;;;;;;3.76;100.00;97292.34;4317350;32;20197;-61
2023/12/18 00:14:14;;;;;;;2.10;2.00;;;;;;;3.68;100.00;97297.00;4324020;32;20198;-61
2023/12/18 00:16:39;;;;;;;1.47;1.47;;;;;;;3.81;100.00;97294.38;4324137;32;20202;-61
2023/12/18 00:19:05;;;;;;;1.80;1.70;;;;;;;3.85;100.00;97295.59;4324183;32;20198;-61
2023/12/18 00:21:30;;;;;;;2.60;2.50;;;;;;;3.68;100.00;97294.38;4324042;32;20201;-60
2023/12/18 00:23:56;;;;;;;2.57;2.37;;;;;;;3.73;100.00;97303.25;4331229;32;20277;-61
2023/12/18 00:26:23;;;;;;;1.00;1.00;;;;;;;3.66;100.00;97294.56;4328780;32;20194;-61
2023/12/18 00:28:48;;;;;;;1.50;1.50;;;;;;;3.70;100.00;97289.72;4326773;32;20308;-61
2023/12/18 00:31:13;;;;;;;1.73;1.63;;;;;;;3.61;100.00;97296.16;4319104;32;20287;-61
2023/12/18 00:33:39;;;;;;;1.53;1.47;;;;;;;3.60;100.00;97290.09;4325167;32;20194;-61
2023/12/18 00:36:04;;;;;;;1.77;1.70;;;;;;;3.75;100.00;97292.53;4323047;32;20205;-60
2023/12/18 00:38:30;;;;;;;3.27;2.03;;;;;;;3.58;100.00;97288.69;4331522;32;20219;-60
2023/12/18 00:40:55;;;;;;;1.97;1.87;;;;;;;3.71;100.00;97280.84;4330084;32;20256;-61
2023/12/18 00:43:20;;;;;;;1.57;1.57;;;;;;;3.84;100.00;97278.22;4332542;32;20196;-61
2023/12/18 00:45:46;;;;;;;1.73;1.63;;;;;;;3.85;100.00;97281.66;4328912;32;20185;-61
2023/12/18 00:48:11;;;;;;;1.73;1.70;;;;;;;3.80;100.00;97290.13;4325434;32;20277;-61
2023/12/18 00:50:36;;;;;;;1.30;1.30;;;;;;;3.95;100.00;97287.31;4323096;32;20284;-61
2023/12/18 00:53:02;;;;;;;2.37;1.73;;;;;;;3.82;100.00;97285.47;4328421;32;20194;-61
2023/12/18 00:55:27;;;;;;;1.90;1.80;;;;;;;3.67;100.00;97282.25;4320448;32;20189;-61
2023/12/18 00:57:52;;;;;;;1.63;1.53;;;;;;;3.88;100.00;97289.94;4331082;32;20197;-61
2023/12/18 01:00:18;;;;;;;1.57;1.53;;;;;;;3.60;100.00;97291.94;4327996;32;20231;-61
2023/12/18 01:02:46;;;;;;;2.50;2.37;;;;;;;3.50;100.00;97292.34;4324632;32;20189;-61
2023/12/18 01:05:11;;;;;;;1.27;1.27;;;;;;;3.33;100.00;97286.63;4324172;32;20357;-61
2023/12/18 01:07:37;;;;;;;2.00;1.50;;;;;;;3.09;100.00;97284.56;4330027;32;20286;-61
2023/12/18 01:10:02;;;;;;;1.30;1.20;;;;;;;3.52;100.00;97284.25;4326076;32;20288;-61
2023/12/18 01:12:28;;;;;;;2.17;2.07;;;;;;;3.52;100.00;97284.25;4329918;32;20220;-61
2023/12/18 01:14:53;;;;;;;1.17;1.17;;;;;;;3.34;100.00;97285.63;4329118;32;20221;-61
2023/12/18 01:17:18;;;;;;;1.27;1.23;;;;;;;3.25;100.00;97281.59;4325829;32;20216;-61
2023/12/18 01:19:44;;;;;;;1.40;1.30;;;;;;;3.59;100.00;97282.44;4322200;32;20189;-61
2023/12/18 01:22:09;;;;;;;2.87;2.67;;;;;;;3.57;100.00;97281.81;4315625;32;20198;-60
2023/12/18 01:24:34;;;;;;;2.23;1.43;;;;;;;3.39;100.00;97291.09;4323445;32;20229;-60
2023/12/18 01:27:00;;;;;;;1.80;1.37;;;;;;;3.61;100.00;97290.91;4330588;32;20190;-60
2023/12/18 01:29:25;;;;;;;1.27;1.27;;;;;;;3.64;100.00;97293.16;4332087;32;20205;-60
2023/12/18 01:31:51;;;;;;;1.23;1.23;;;;;;;3.65;100.00;97295.56;4332781;32;20186;-61
2023/12/18 01:34:17;;;;;;;1.43;1.33;;;;;;;3.64;100.00;97285.28;4322435;32;20252;-60
2023/12/18 01:36:42;;;;;;;2.37;2.27;;;;;;;3.53;100.00;97296.38;4328701;32;20397;-60
2023/12/18 01:39:07;;;;;;;1.90;1.80;;;;;;;3.53;100.00;97289.31;4325300;32;20221;-61
2023/12/18 01:41:33;;;;;;;4.70;2.33;;;;;;;3.55;100.00;97281.22;4319103;32;20201;-61
2023/12/18 01:43:58;;;;;;;1.00;1.00;;;;;;;3.27;100.00;97282.19;4324386;32;20198;-60
2023/12/18 01:46:24;;;;;;;1.70;1.60;;;;;;;3.52;100.00;97274.56;4324116;32;20216;-61
2023/12/18 01:48:50;;;;;;;0.97;0.90;;;;;;;3.32;100.00;97274.56;4335148;32;20241;-61
2023/12/18 01:51:18;;;;;;;1.23;1.20;;;;;;;3.38;100.00;97265.88;4327721;32;20309;-61
2023/12/18 01:53:47;;;;;;;1.57;1.47;;;;;;;3.32;100.00;97269.31;4324636;32;20363;-60
2023/12/18 01:56:15;;;;;;;1.97;1.87;;;;;;;3.30;100.00;97265.25;4320269;32;20369;-60
2023/12/18 01:58:43;;;;;;;1.20;1.20;;;;;;;3.20;100.00;97259.56;4330811;32;20281;-60
2023/12/18 02:01:08;;;;;;;1.47;1.43;;;;;;;3.31;100.00;97259.00;4328585;32;20341;-60
2023/12/18 02:03:35;;;;;;;0.93;0.93;;;;;;;3.15;100.00;97251.50;4325333;32;20314;-60
2023/12/18 02:06:01;;;;;;;2.00;1.67;;;;;;;3.24;100.00;97239.81;4335401;32;20236;-61
2023/12/18 02:08:26;;;;;;;1.67;1.03;;;;;;;3.08;100.00;97248.87;4330062;32;20326;-61
2023/12/18 02:10:55;;;;;;;1.13;1.13;;;;;;;3.24;100.00;97242.44;4334141;32;20213;-60
2023/12/18 02:13:20;;;;;;;1.40;1.07;;;;;;;3.17;100.00;97245.03;4326869;32;20224;-61
2023/12/18 02:15:46;;;;;;;1.77;1.67;;;;;;;3.16;100.00;97238.19;4319274;32;20286;-61
2023/12/18 02:18:11;;;;;;;0.97;0.87;;;;;;;3.18;100.00;97230.12;4328278;32;20243;-61
2023/12/18 02:20:40;;;;;;;1.53;1.47;;;;;;;3.17;100.00;97224.06;4331211;32;20195;-61
2023/12/18 02:23:06;;;;;;;1.27;1.17;;;;;;;3.09;100.00;97230.31;4332326;32;20198;-61
2023/12/18 02:25:31;;;;;;;1.90;1.80;;;;;;;3.14;100.00;97223.66;4329032;32;20551;-61
2023/12/18 02:27:57;;;;;;;0.63;0.63;;;;;;;3.36;100.00;97223.28;4340184;32;20216;-61
2023/12/18 02:30:23;;;;;;;1.00;1.00;;;;;;;3.25;100.00;97225.72;4322021;32;20186;-61
2023/12/18 02:32:48;;;;;;;0.40;0.40;;;;;;;3.17;100.00;97226.69;4328889;32;20274;-61
2023/12/18 02:35:14;;;;;;;1.10;1.10;;;;;;;3.23;100.00;97214.59;4326275;32;20201;-61
2023/12/18 02:37:39;;;;;;;0.50;0.50;;;;;;;3.16;100.00;97216.41;4331885;32;20194;-61
2023/12/18 02:40:05;;;;;;;1.00;1.00;;;;;;;3.12;100.00;97223.06;4319216;32;20189;-61
2023/12/18 02:42:32;;;;;;;1.30;1.30;;;;;;;3.35;100.00;97213.81;4324231;32;20189;-61
2023/12/18 02:44:58;;;;;;;0.57;0.57;;;;;;;3.49;100.00;97211.22;4326135;32;20283;-61
2023/12/18 02:47:23;;;;;;;0.97;0.93;;;;;;;3.31;100.00;97207.38;4319882;32;20287;-61
2023/12/18 02:49:49;;;;;;;11.03;0.93;;;;;;;3.47;100.00;97210.59;4333109;32;20190;-60
2023/12/18 02:52:14;;;;;;;0.60;0.60;;;;;;;3.53;100.00;97204.56;4325461;32;20194;-60
2023/12/18 02:54:40;;;;;;;1.60;1.13;;;;;;;3.40;100.00;97202.72;4331336;32;20216;-60
2023/12/18 02:57:05;;;;;;;0.60;0.60;;;;;;;3.25;100.00;97207.34;4332235;32;20247;-60
2023/12/18 02:59:31;;;;;;;1.30;1.20;;;;;;;3.19;100.00;97206.31;4312974;32;20252;-60
2023/12/18 03:01:56;;;;;;;0.77;0.77;;;;;;;3.38;100.00;97204.72;4312355;32;20212;-60
2023/12/18 03:04:22;;;;;;;0.70;0.70;;;;;;;3.52;100.00;97197.69;4323106;32;20212;-61
2023/12/18 03:06:48;;;;;;;1.23;1.13;;;;;;;3.46;100.00;97201.91;4328827;32;20194;-60
2023/12/18 03:09:13;;;;;;;0.70;0.70;;;;;;;3.48;100.00;97204.34;4327701;32;20274;-60
2023/12/18 03:11:40;;;;;;;0.60;0.60;;;;;;;3.50;100.00;97195.25;4329024;32;20317;-60
2023/12/18 03:14:06;;;;;;;0.73;0.73;;;;;;;3.34;100.00;97195.63;4321975;32;20251;-60
2023/12/18 03:16:31;;;;;;;0.57;0.57;;;;;;;3.33;100.00;97192.22;4322452;32;20299;-60
2023/12/18 03:18:57;;;;;;;0.53;0.53;;;;;;;3.45;100.00;97195.87;4319225;32;20185;-60
2023/12/18 03:21:22;;;;;;;0.43;0.43;;;;;;;3.54;100.00;97187.78;4331150;32;20243;-60
2023/12/18 03:23:47;;;;;;;0.63;0.63;;;;;;;3.61;100.00;97189.41;4330061;32;20263;-60
2023/12/18 03:26:13;;;;;;;0.90;0.90;;;;;;;3.62;100.00;97190.22;4329249;32;20336;-60
2023/12/18 03:28:38;;;;;;;0.70;0.70;;;;;;;3.53;100.00;97199.31;4331708;32;20197;-60
2023/12/18 03:31:03;;;;;;;0.80;0.80;;;;;;;3.30;100.00;97199.69;4321960;32;20224;-61
2023/12/18 03:33:29;;;;;;;0.87;0.87;;;;;;;3.53;100.00;97200.12;4321543;32;20194;-61
2023/12/18 03:35:54;;;;;;;0.93;0.93;;;;;;;3.56;100.00;97196.25;4327882;32;20190;-60
2023/12/18 03:38:19;;;;;;;0.63;0.63;;;;;;;3.61;100.00;97191.22;4324099;33;20190;-61
2023/12/18 03:40:45;;;;;;;0.70;0.63;;;;;;;3.44;100.00;97193.44;4330789;32;20253;-61
2023/12/18 03:43:10;;;;;;;0.90;0.90;;;;;;;3.60;100.00;97189.59;4336096;32;20189;-61
2023/12/18 03:45:35;;;;;;;1.50;1.13;;;;;;;3.34;100.00;97180.72;4320553;32;20232;-60
2023/12/18 03:48:01;;;;;;;4.73;1.07;;;;;;;3.44;100.00;97183.75;4326535;32;20189;-60
2023/12/18 03:50:26;;;;;;;0.47;0.47;;;;;;;3.26;100.00;97172.25;4326067;32;20212;-61
2023/12/18 03:52:51;;;;;;;1.63;1.53;;;;;;;3.36;100.00;97180.50;4326622;32;20221;-60
2023/12/18 03:55:17;;;;;;;3.13;1.43;;;;;;;3.54;100.00;97183.34;4324601;32;20213;-60
2023/12/18 03:57:42;;;;;;;0.53;0.53;;;;;;;3.60;100.00;97179.09;4329853;32;22831;-60
2023/12/18 04:00:08;;;;;;;0.97;0.87;;;;;;;3.50;100.00;97182.16;4320817;32;20302;-61
2023/12/18 04:02:33;;;;;;;0.30;0.30;;;;;;;3.63;100.00;97182.13;4326761;32;20206;-60
2023/12/18 04:04:59;;;;;;;0.60;0.60;;;;;;;3.59;100.00;97180.09;4330150;32;20216;-60
2023/12/18 04:07:24;;;;;;;1.90;0.50;;;;;;;3.72;100.00;97182.75;4328620;32;20189;-60
2023/12/18 04:09:49;;;;;;;0.30;0.23;;;;;;;3.46;100.00;97180.94;4330408;32;20181;-61
2023/12/18 04:12:15;;;;;;;0.40;0.40;;;;;;;3.83;100.00;97178.69;4321568;32;20179;-60
2023/12/18 04:14:42;;;;;;;0.50;0.50;;;;;;;3.80;100.00;97183.31;4338903;32;20229;-61
2023/12/18 04:17:08;;;;;;;0.60;0.60;;;;;;;3.75;100.00;97182.31;4319885;32;20197;-61
2023/12/18 04:19:33;;;;;;;0.60;0.60;;;;;;;3.54;100.00;97180.72;4319045;32;20324;-61
2023/12/18 04:21:58;;;;;;;0.30;0.30;;;;;;;3.67;100.00;97175.47;4325190;32;20234;-60
2023/12/18 04:24:24;;;;;;;0.20;0.20;;;;;;;3.82;100.00;97175.25;4329717;32;20197;-61
2023/12/18 04:26:49;;;;;;;0.40;0.40;;;;;;;3.69;100.00;97170.03;4330350;32;20193;-60
2023/12/18 04:29:14;;;;;;;0.80;0.73;;;;;;;3.67;100.00;97174.66;4328936;32;20182;-60
2023/12/18 04:31:40;;;;;;;0.90;0.90;;;;;;;3.62;100.00;97180.50;4332799;32;20193;-60
2023/12/18 04:34:06;;;;;;;1.30;1.20;;;;;;;3.43;100.00;97179.53;4328091;32;20236;-60
2023/12/18 04:36:37;;;;;;;0.23;0.23;;;;;;;3.42;100.00;97172.66;4325086;32;20216;-60
2023/12/18 04:39:02;;;;;;;0.80;0.80;;;;;;;3.28;100.00;97171.06;4324459;32;20274;-60
2023/12/18 04:41:27;;;;;;;0.47;0.47;;;;;;;3.52;100.00;97171.47;4322236;32;20350;-60
2023/12/18 04:43:53;;;;;;;0.77;0.77;;;;;;;3.71;100.00;97163.56;4323319;32;20233;-60
2023/12/18 04:46:18;;;;;;;0.40;0.40;;;;;;;3.55;100.00;97165.78;4327054;32;20245;-60
2023/12/18 04:48:45;;;;;;;1.23;0.73;;;;;;;3.53;100.00;97159.97;4323309;32;20277;-60
2023/12/18 04:51:10;;;;;;;0.37;0.37;;;;;;;3.64;100.00;97157.50;4338822;32;20251;-60
2023/12/18 04:53:36;;;;;;;0.40;0.40;;;;;;;3.54;100.00;97164.16;4322857;32;20287;-60
2023/12/18 04:56:01;;;;;;;0.33;0.33;;;;;;;3.59;100.00;97159.94;4322208;32;20233;-60
2023/12/18 04:58:27;;;;;;;0.30;0.30;;;;;;;3.74;100.00;97162.34;4326511;32;20205;-60
2023/12/18 05:00:52;;;;;;;0.53;0.53;;;;;;;3.72;100.00;97162.56;4325366;32;20194;-60
2023/12/18 05:03:17;;;;;;;0.40;0.40;;;;;;;3.48;100.00;97159.75;4325331;32;20250;-60
2023/12/18 05:05:43;;;;;;;0.67;0.67;;;;;;;3.60;100.00;97160.75;4319606;32;20295;-60
2023/12/18 05:08:08;;;;;;;1.10;1.10;;;;;;;3.61;100.00;97162.34;4328165;32;20248;-60
2023/12/18 05:10:33;;;;;;;0.30;0.30;;;;;;;3.66;100.00;97159.94;4323775;32;20212;-60
2023/12/18 05:13:00;;;;;;;0.70;0.70;;;;;;;3.67;100.00;97162.34;4328596;32;20232;-61
2023/12/18 05:15:26;;;;;;;0.90;0.60;;;;;;;3.70;100.00;97161.94;4316309;32;20225;-61
2023/12/18 05:17:51;;;;;;;0.60;0.57;;;;;;;3.59;100.00;97161.75;4322226;33;20279;-60
2023/12/18 05:20:16;;;;;;;0.50;0.50;;;;;;;3.68;100.00;97163.16;4323716;32;20208;-60
2023/12/18 05:22:42;;;;;;;0.90;0.90;;;;;;;3.70;100.00;97166.37;4318129;32;20277;-61
2023/12/18 05:25:09;;;;;;;0.30;0.30;;;;;;;3.45;100.00;97161.75;4328234;32;20236;-60
2023/12/18 05:27:35;;;;;;;0.40;0.40;;;;;;;3.25;100.00;97166.19;4321944;32;20226;-60
2023/12/18 05:30:00;;;;;;;0.43;0.43;;;;;;;3.09;100.00;97166.59;4315410;32;20322;-61
2023/12/18 05:32:25;;;;;;;1.40;0.83;;;;;;;3.16;100.00;97164.78;4315682;32;20189;-60
2023/12/18 05:38:13;;;;;;;0.67;0.67;;;;;;;3.59;100.00;97167.00;4321582;32;20216;-61
2023/12/18 05:40:38;;;;;;;0.93;0.63;;;;;;;3.56;100.00;97152.47;4326135;32;20313;-60
2023/12/18 05:43:05;;;;;;;0.70;0.70;;;;;;;3.50;100.00;97160.34;4329547;32;20189;-61
2023/12/18 05:45:33;;;;;;;2.43;0.70;;;;;;;3.57;100.00;97153.28;4318946;32;20181;-61
2023/12/18 05:47:59;;;;;;;0.43;0.43;;;;;;;3.64;100.00;97161.94;4329849;32;20282;-60
2023/12/18 05:50:26;;;;;;;0.50;0.47;;;;;;;3.45;100.00;97164.38;4329701;32;20333;-61
2023/12/18 05:52:51;;;;;;;0.70;0.70;;;;;;;3.34;100.00;97164.97;4330517;32;20281;-61
2023/12/18 05:55:16;;;;;;;1.13;0.73;;;;;;;3.42;100.00;97156.91;4321353;32;20279;-61
2023/12/18 05:57:42;;;;;;;0.43;0.37;;;;;;;3.38;100.00;97158.31;4327358;32;20244;-61
2023/12/18 06:00:09;;;;;;;0.60;0.60;;;;;;;3.38;100.00;97158.31;4325069;32;20233;-60
2023/12/18 06:02:35;;;;;;;0.40;0.40;;;;;;;3.44;100.00;97152.28;4318260;32;20190;-60
2023/12/18 06:05:00;;;;;;;0.70;0.70;;;;;;;3.56;100.00;97160.34;4324056;32;20282;-60
2023/12/18 06:07:26;;;;;;;0.37;0.37;;;;;;;3.53;100.00;97167.81;4320097;32;20208;-60
2023/12/18 06:09:51;;;;;;;0.60;0.60;;;;;;;3.51;100.00;97165.41;4327624;32;20253;-60
2023/12/18 06:12:16;;;;;;;0.73;0.50;;;;;;;3.69;100.00;97162.97;4332567;32;20224;-61
2023/12/18 06:14:42;;;;;;;0.63;0.63;;;;;;;3.77;100.00;97162.72;4328072;32;20268;-60
2023/12/18 06:17:08;;;;;;;0.47;0.47;;;;;;;3.72;100.00;97164.38;4325665;32;20244;-60
2023/12/18 06:19:34;;;;;;;0.40;0.40;;;;;;;3.86;100.00;97165.16;4327681;32;20182;-60
2023/12/18 06:22:01;;;;;;;0.40;0.40;;;;;;;3.90;100.00;97164.53;4319451;32;20292;-60
2023/12/18 06:24:26;;;;;;;0.50;0.50;;;;;;;3.91;100.00;97162.72;4325728;32;20291;-61
2023/12/18 06:26:53;;;;;;;0.40;0.40;;;;;;;3.84;100.00;97165.34;4330319;32;20320;-60
2023/12/18 06:29:18;;;;;;;0.90;0.90;;;;;;;3.95;100.00;97159.47;4328107;32;20253;-60
2023/12/18 06:31:44;;;;;;;0.50;0.50;;;;;;;3.79;100.00;97160.72;4320313;32;20345;-61
2023/12/18 06:34:11;;;;;;;0.20;0.20;;;;;;;3.85;100.00;97159.09;4329520;32;20257;-60
2023/12/18 06:36:36;;;;;;;0.30;0.30;;;;;;;3.87;100.00;97156.25;4323950;32;20205;-60
2023/12/18 06:39:02;;;;;;;0.67;0.67;;;;;;;4.00;100.00;97154.41;4335169;32;20283;-60
2023/12/18 06:41:27;;;;;;;0.30;0.30;;;;;;;3.84;100.00;97154.84;4326082;32;20216;-60
2023/12/18 06:43:53;;;;;;;0.50;0.43;;;;;;;3.94;100.00;97157.87;4334190;32;20193;-60
2023/12/18 06:46:18;;;;;;;0.77;0.70;;;;;;;4.02;100.00;97152.38;4328203;32;20205;-60
2023/12/18 06:48:43;;;;;;;2.87;0.53;;;;;;;3.98;100.00;97153.00;4328053;32;20238;-60
2023/12/18 06:51:11;;;;;;;0.50;0.50;;;;;;;3.73;100.00;97152.88;4320208;32;20197;-60
2023/12/18 06:53:37;;;;;;;0.70;0.70;;;;;;;3.72;100.00;97154.69;4331771;32;20209;-60
2023/12/18 06:56:03;;;;;;;0.80;0.80;;;;;;;3.66;100.00;97152.06;4324768;32;20321;-60
2023/12/18 06:58:28;;;;;;;2.23;0.97;;;;;;;3.67;100.00;97154.47;4323763;32;20220;-60
2023/12/18 07:00:53;;;;;;;2.00;1.17;;;;;;;3.66;100.00;97152.06;4325609;33;20252;-60
2023/12/18 07:03:19;;;;;;;0.60;0.60;;;;;;;3.80;100.00;97153.66;4325131;33;20240;-60
2023/12/18 07:05:45;;;;;;;0.70;0.70;;;;;;;3.86;100.00;97152.84;4326484;32;20305;-60
2023/12/18 07:08:10;;;;;;;2.73;1.33;;;;;;;3.87;100.00;97154.44;4317940;32;20220;-60
2023/12/18 07:10:35;;;;;;;1.20;1.10;;;;;;;4.01;100.00;97166.53;4325802;32;20309;-60
2023/12/18 07:13:01;;;;;;;1.67;0.60;;;;;;;3.93;100.00;97163.31;4329356;32;20470;-60
2023/12/18 07:15:26;;;;;;;6.00;1.20;;;;;;;3.73;100.00;97158.94;4329083;32;20208;-60
2023/12/18 07:17:52;;;;;;;2.30;0.60;;;;;;;3.84;100.00;97157.47;4321717;32;20186;-60
2023/12/18 07:20:17;;;;;;;2.07;1.43;;;;;;;3.62;100.00;97163.97;4312926;32;20232;-60
2023/12/18 07:22:43;;;;;;;7.60;1.40;;;;;;;3.62;100.00;97163.97;4311699;32;20202;-62
2023/12/18 07:25:09;;;;;;;9.30;1.07;;;;;;;7.79;100.00;97141.50;4313130;32;20201;-62
2023/12/18 07:27:37;;;;;;;0.83;0.83;;;;;;;9.37;100.00;97151.50;4326536;32;20316;-62
2023/12/18 07:30:03;;;;;;;0.97;0.70;;;;;;;10.55;96.25;97152.16;4330914;32;20217;-62
2023/12/18 07:32:32;;;;;;;0.77;0.77;;;;;;;11.53;81.69;97145.69;4320856;32;20306;-62
2023/12/18 07:35:04;;;;;;;15.70;1.77;;;;;;;12.10;75.10;97145.03;4329150;32;20198;-62
2023/12/18 07:37:31;;;;;;;1.73;0.60;;;;;;;11.82;72.88;97156.06;4316649;32;20206;-62
2023/12/18 07:39:59;;;;;;;1.10;1.10;;;;;;;11.98;75.18;97163.88;4316433;32;20197;-62
2023/12/18 07:42:25;;;;;;;2.83;1.60;;;;;;;12.35;77.10;97158.50;4326233;32;20213;-62
2023/12/18 07:44:51;;;;;;;3.90;2.43;;;;;;;12.14;67.52;97161.28;4322756;32;20238;-62
2023/12/18 07:47:17;;;;;;;3.60;2.50;;;;;;;12.01;58.95;97159.91;4325085;32;20217;-62
2023/12/18 07:49:43;;;;;;;22.70;4.23;;;;;;;12.20;57.68;97155.75;4323257;32;20216;-62
2023/12/18 07:52:08;;;;;;;12.97;5.23;;;;;;;12.17;57.79;97158.94;4328565;32;20223;-62
2023/12/18 07:54:34;;;;;;;14.80;5.43;;;;;;;11.99;57.37;97154.84;4323148;32;20194;-62
2023/12/18 07:56:59;;;;;;;22.27;4.63;;;;;;;12.10;57.39;97157.53;4316293;32;20221;-62
2023/12/18 07:59:25;;;;;;;7.67;3.93;;;;;;;12.01;57.05;97157.25;4331119;32;20216;-61
2023/12/18 08:01:50;;;;;;;3.20;2.20;;;;;;;12.07;56.83;97147.41;4328425;32;20205;-62
2023/12/18 08:04:16;;;;;;;3.97;2.47;;;;;;;11.87;62.76;97161.38;4327012;32;20190;-63
2023/12/18 08:06:41;;;;;;;4.70;1.60;;;;;;;11.76;71.38;97160.53;4323215;32;20224;-62
2023/12/18 08:09:07;;;;;;;3.23;2.00;;;;;;;11.79;72.15;97160.03;4324788;32;20190;-63
2023/12/18 08:11:33;;;;;;;3.50;2.93;;;;;;;11.88;70.22;97157.66;4317606;32;20193;-63
2023/12/18 08:13:59;;;;;;;3.27;2.20;;;;;;;11.61;67.18;97155.88;4321396;32;20204;-63
2023/12/18 08:16:24;;;;;;;3.83;1.93;;;;;;;11.76;66.03;97151.72;4320817;32;20194;-63
2023/12/18 08:18:50;;;;;;;9.50;2.73;;;;;;;11.62;65.36;97148.69;4334538;32;20233;-63
2023/12/18 08:21:15;;;;;;;2.50;2.30;;;;;;;11.71;63.81;97152.47;4321579;32;20232;-63
2023/12/18 08:23:41;;;;;;;2.63;2.13;;;;;;;11.61;64.86;97155.06;4322001;32;20186;-63
2023/12/18 08:26:13;;;;;;;27.07;3.00;;;;;;;11.86;63.86;97159.78;4315638;32;20190;-63
2023/12/18 08:28:42;;;;;;;2.00;1.90;;;;;;;11.89;62.77;97152.09;4324475;32;20205;-63
2023/12/18 08:31:07;;;;;;;2.10;1.83;;;;;;;11.66;62.31;97149.78;4329629;32;20197;-61
2023/12/18 08:33:33;;;;;;;4.33;1.53;;;;;;;10.73;59.14;97154.50;4320689;32;20208;-61
2023/12/18 08:35:59;;;;;;;8.00;2.63;;;;;;;9.53;62.54;97155.22;4330104;32;20186;-61
2023/12/18 08:38:28;;;;;;;1.03;1.03;;;;;;;8.03;67.86;97161.62;4323381;32;20249;-61
2023/12/18 08:40:53;;;;;;;1.67;1.57;;;;;;;7.45;71.02;97157.13;4325758;33;20243;-60
2023/12/18 08:43:19;;;;;;;2.77;1.43;;;;;;;6.79;74.63;97152.81;4333086;32;20243;-60
2023/12/18 08:45:44;;;;;;;1.53;1.27;;;;;;;6.39;77.48;97149.87;4323143;32;20296;-60
2023/12/18 08:48:11;;;;;;;1.00;1.00;;;;;;;6.16;79.07;97155.81;4327998;32;20216;-60
2023/12/18 08:50:38;;;;;;;1.40;0.90;;;;;;;6.31;79.15;97159.91;4328496;32;20235;-60
2023/12/18 08:53:04;;;;;;;1.47;1.33;;;;;;;6.24;80.19;97156.53;4327427;32;20210;-60
2023/12/18 08:55:29;;;;;;;0.60;0.60;;;;;;;6.28;80.22;97163.78;4324364;32;20377;-60
2023/12/18 08:58:05;;;;;;;1.07;1.07;;;;;;;6.25;80.62;97160.78;4328395;32;20193;-60
2023/12/18 09:00:49;;;;;;;0.70;0.70;;;;;;;5.99;82.55;97157.41;4318790;32;20229;-60
2023/12/18 09:03:14;;;;;;;0.80;0.80;;;;;;;6.11;81.62;97154.84;4323087;32;20360;-60
2023/12/18 09:05:40;;;;;;;0.60;0.60;;;;;;;6.32;81.01;97151.78;4328343;32;20285;-60
2023/12/18 09:08:06;;;;;;;0.73;0.70;;;;;;;6.38;80.41;97158.81;4327681;32;20217;-60
2023/12/18 09:10:33;;;;;;;0.87;0.83;;;;;;;6.34;80.94;97157.63;4316532;32;20197;-61
2023/12/18 09:12:58;;;;;;;0.60;0.60;;;;;;;6.31;81.78;97165.16;4327746;32;20216;-60
2023/12/18 09:15:24;;;;;;;0.60;0.60;;;;;;;6.48;80.78;97160.91;4332833;32;20282;-60
2023/12/18 09:17:49;;;;;;;0.67;0.67;;;;;;;6.53;80.45;97164.50;4318391;32;20259;-60
2023/12/18 09:20:15;;;;;;;0.57;0.57;;;;;;;6.90;79.04;97162.59;4328454;32;20335;-60
2023/12/18 09:22:40;;;;;;;2.13;1.20;;;;;;;6.81;79.63;97156.03;4323810;32;20253;-60
2023/12/18 09:25:06;;;;;;;1.33;0.50;;;;;;;6.88;78.15;97158.56;4322261;32;20242;-61
2023/12/18 09:27:31;;;;;;;0.93;0.93;;;;;;;6.94;78.66;97157.69;4320057;32;20243;-60
2023/12/18 09:30:02;;;;;;;0.33;0.33;;;;;;;7.19;77.00;97155.69;4318119;32;20246;-60
2023/12/18 09:32:29;;;;;;;1.17;1.07;;;;;;;7.20;76.48;97159.13;4318888;32;20291;-61
2023/12/18 09:34:54;;;;;;;0.87;0.73;;;;;;;7.16;76.15;97164.06;4330024;33;20205;-60
2023/12/18 09:37:40;;;;;;;1.00;0.30;;;;;;;7.37;74.48;97160.09;4306929;33;20282;-59
2023/12/18 09:40:07;;;;;;;0.10;0.10;;;;;;;7.48;74.71;97155.88;4324202;32;20237;-60
2023/12/18 09:43:02;;;;;;;0.40;0.40;;;;;;;7.49;73.68;97158.25;4327376;32;20281;-60
2023/12/18 09:48:50;;;;;;;0.47;0.47;;;;;;;7.51;74.28;97155.38;4326185;32;20259;-59
2023/12/18 09:51:19;;;;;;;0.73;0.60;;;;;;;7.61;74.10;97150.34;4328264;32;20294;-59
2023/12/18 09:53:45;;;;;;;0.60;0.60;;;;;;;7.73;73.87;97145.88;4325960;32;23274;-59
2023/12/18 09:56:12;;;;;;;1.97;1.03;;;;;;;7.69;74.08;97146.59;4326433;32;20225;-58
2023/12/18 09:58:39;;;;;;;1.10;0.40;;;;;;;7.80;73.22;97143.13;4328726;32;20256;-59
2023/12/18 10:01:07;;;;;;;1.53;1.43;;;;;;;7.70;74.71;97142.87;4329634;32;20311;-59
2023/12/18 10:03:33;;;;;;;0.57;0.57;;;;;;;7.79;73.81;97141.50;4328190;32;20193;-59
2023/12/18 10:05:58;;;;;;;1.40;0.83;;;;;;;7.81;73.96;97144.72;4334734;32;20308;-59
2023/12/18 10:08:24;;;;;;;1.20;0.73;;;;;;;7.76;74.83;97142.78;4327982;32;20198;-59
2023/12/18 10:10:52;;;;;;;0.77;0.47;;;;;;;7.77;75.06;97133.81;4330127;32;20221;-60
2023/12/18 10:13:17;;;;;;;0.83;0.83;;;;;;;7.90;74.25;97135.41;4325191;32;20237;-59
2023/12/18 10:15:43;;;;;;;1.07;0.60;;;;;;;8.06;73.34;97132.09;4331257;32;20244;-60
2023/12/18 10:18:13;;;;;;;0.93;0.43;;;;;;;8.03;73.04;97132.53;4322780;32;20194;-61
2023/12/18 10:20:39;;;;;;;1.80;1.00;;;;;;;8.06;73.72;97132.09;4332906;32;20267;-60
2023/12/18 10:23:07;;;;;;;1.07;0.83;;;;;;;8.17;73.70;97135.72;4328217;32;20209;-59
2023/12/18 10:25:34;;;;;;;0.73;0.53;;;;;;;8.15;72.43;97133.31;4329033;32;20209;-60
2023/12/18 10:28:00;;;;;;;0.50;0.50;;;;;;;8.28;72.12;97124.34;4331316;32;20247;-60
2023/12/18 10:30:29;;;;;;;9.90;0.53;;;;;;;8.39;70.75;97117.44;4326752;32;20193;-61
2023/12/18 10:32:57;;;;;;;0.37;0.37;;;;;;;8.49;70.46;97120.28;4318160;32;20269;-59
2023/12/18 10:35:22;;;;;;;0.80;0.80;;;;;;;8.62;70.09;97125.28;4319193;32;20198;-63
2023/12/18 10:37:53;;;;;;;0.30;0.30;;;;;;;8.58;69.65;97111.72;4318097;32;20198;-60
2023/12/18 10:40:20;;;;;;;0.70;0.70;;;;;;;8.86;68.88;97107.47;4328882;32;20257;-60
2023/12/18 10:42:56;;;;;;;0.63;0.63;;;;;;;8.79;68.74;97109.47;4315766;32;20288;-60
2023/12/18 10:45:22;;;;;;;0.30;0.30;;;;;;;9.00;68.09;97105.31;4329724;32;20209;-60
2023/12/18 10:47:48;;;;;;;0.30;0.27;;;;;;;9.04;67.18;97111.75;4335382;32;20190;-59
2023/12/18 10:50:19;;;;;;;0.30;0.30;;;;;;;8.81;69.01;97110.03;4331091;32;20228;-59
2023/12/18 10:52:46;;;;;;;0.70;0.70;;;;;;;8.85;69.57;97109.31;4327225;33;20216;-60
2023/12/18 10:55:16;;;;;;;0.60;0.60;;;;;;;9.00;67.45;97102.69;4316272;32;20194;-59
2023/12/18 10:57:43;;;;;;;0.50;0.50;;;;;;;9.35;65.63;97107.78;4319624;32;20217;-59
2023/12/18 11:00:10;;;;;;;0.80;0.80;;;;;;;9.41;64.86;97110.25;4319498;32;20237;-59
2023/12/18 11:02:37;;;;;;;2.23;0.47;;;;;;;9.52;65.58;97105.94;4321574;32;20193;-59
2023/12/18 11:05:06;;;;;;;0.57;0.57;;;;;;;9.30;66.46;97097.91;4328246;32;20261;-60
2023/12/18 11:07:32;;;;;;;0.20;0.20;;;;;;;9.36;65.84;97099.56;4328212;32;20186;-60
2023/12/18 11:09:58;;;;;;;1.33;0.70;;;;;;;9.15;67.46;97093.12;4318785;32;20213;-62
2023/12/18 11:12:25;;;;;;;1.20;0.73;;;;;;;9.25;65.84;97089.87;4332340;32;20196;-61
2023/12/18 11:15:21;;;;;;;0.50;0.50;;;;;;;9.26;66.59;97086.19;4331340;32;20324;-60
2023/12/18 11:18:10;;;;;;;1.40;0.93;;;;;;;9.21;66.78;97080.78;4320997;32;20272;-60
2023/12/18 11:20:40;;;;;;;0.60;0.60;;;;;;;9.40;66.48;97073.41;4323695;32;20219;-60
2023/12/18 11:23:05;;;;;;;0.67;0.67;;;;;;;9.41;65.64;97070.53;4317283;32;20182;-60
2023/12/18 11:25:41;;;;;;;2.03;0.93;;;;;;;9.46;64.86;97067.16;4329295;32;20217;-60
2023/12/18 11:28:07;;;;;;;0.70;0.70;;;;;;;9.46;65.43;97070.59;4327024;32;20190;-59
2023/12/18 11:30:40;;;;;;;1.10;0.60;;;;;;;9.48;65.54;97065.87;4330108;32;20208;-60
2023/12/18 11:33:07;;;;;;;0.50;0.40;;;;;;;9.46;65.49;97062.66;4329564;32;20244;-60
2023/12/18 11:35:34;;;;;;;0.50;0.50;;;;;;;9.71;63.30;97056.91;4320369;32;20189;-60
2023/12/18 11:38:06;;;;;;;0.60;0.50;;;;;;;9.55;64.74;97053.25;4320926;32;20198;-60
2023/12/18 11:40:32;;;;;;;0.80;0.30;;;;;;;9.58;65.17;97052.75;4323268;32;20198;-60